GCTCG EGTK-EGMD
Flight info
| Callsign | GCTCG |
|---|---|
| Flight time | 1h 4m |
| Altitude | 1000 |
| Route | DCT KIDLI/N0174F110 IFR L151 MID Y803 LYD |
| Aircraft | DA42/L-SBDGRY/SB2 |
Departure
| Time | 2026-04-28 17:18 |
|---|---|
| Airport | London Oxford Airport (EGTK) |
Arrival
| Time | 2026-04-28 18:23 |
|---|---|
| Airport | Lydd London Ashford Airport (EGMD) |
| Time | Latitude | Longitude | Altitude | Speed | Heading |
|---|---|---|---|---|---|
| 2026-04-28 16:59 | 51.83260 | -1.31272 | 263 ft | 0 kts | 299° |
| 2026-04-28 17:12 | 51.83261 | -1.31272 | 263 ft | 0 kts | 299° |
| 2026-04-28 17:13 | 51.83261 | -1.31298 | 263 ft | 6 kts | 259° |
| 2026-04-28 17:13 | 51.83246 | -1.31408 | 263 ft | 14 kts | 258° |
| 2026-04-28 17:13 | 51.83223 | -1.31541 | 263 ft | 13 kts | 255° |
| 2026-04-28 17:13 | 51.83178 | -1.31578 | 263 ft | 10 kts | 160° |
| 2026-04-28 17:14 | 51.83087 | -1.31524 | 263 ft | 17 kts | 180° |
| 2026-04-28 17:14 | 51.83023 | -1.31652 | 263 ft | 14 kts | 261° |
| 2026-04-28 17:14 | 51.83005 | -1.31814 | 263 ft | 16 kts | 260° |
| 2026-04-28 17:14 | 51.82987 | -1.31987 | 263 ft | 15 kts | 259° |
| 2026-04-28 17:15 | 51.82985 | -1.32037 | 263 ft | 0 kts | 274° |
| 2026-04-28 17:16 | 51.82985 | -1.32041 | 263 ft | 1 kts | 275° |
| 2026-04-28 17:16 | 51.82995 | -1.32128 | 264 ft | 14 kts | 294° |
| 2026-04-28 17:16 | 51.83064 | -1.32187 | 265 ft | 12 kts | 10° |
| 2026-04-28 17:17 | 51.83228 | -1.32139 | 263 ft | 44 kts | 9° |
| 2026-04-28 17:17 | 51.83624 | -1.32030 | 338 ft | 68 kts | 11° |
| 2026-04-28 17:17 | 51.84116 | -1.31937 | 547 ft | 76 kts | 8° |
| 2026-04-28 17:17 | 51.84709 | -1.31927 | 688 ft | 93 kts | 6° |
| 2026-04-28 17:18 | 51.85339 | -1.32204 | 854 ft | 112 kts | 325° |
| 2026-04-28 17:18 | 51.85282 | -1.33466 | 1037 ft | 138 kts | 202° |
| 2026-04-28 17:18 | 51.84348 | -1.33956 | 1002 ft | 141 kts | 189° |
| 2026-04-28 17:18 | 51.83543 | -1.34244 | 1190 ft | 125 kts | 182° |
| 2026-04-28 17:19 | 51.82641 | -1.34425 | 977 ft | 134 kts | 179° |
| 2026-04-28 17:19 | 51.81812 | -1.34198 | 902 ft | 103 kts | 118° |
| 2026-04-28 17:19 | 51.81748 | -1.33290 | 698 ft | 77 kts | 65° |
| 2026-04-28 17:19 | 51.82048 | -1.32716 | 523 ft | 67 kts | 26° |
| 2026-04-28 17:20 | 51.82444 | -1.32415 | 404 ft | 59 kts | 27° |
| 2026-04-28 17:20 | 51.82711 | -1.32294 | 352 ft | 63 kts | 8° |
| 2026-04-28 17:20 | 51.83276 | -1.32126 | 267 ft | 53 kts | 14° |
| 2026-04-28 17:20 | 51.83687 | -1.32008 | 363 ft | 66 kts | 11° |
| 2026-04-28 17:21 | 51.84172 | -1.31839 | 502 ft | 73 kts | 15° |
| 2026-04-28 17:21 | 51.84664 | -1.31693 | 732 ft | 74 kts | 15° |
| 2026-04-28 17:21 | 51.85141 | -1.31997 | 860 ft | 99 kts | 296° |
| 2026-04-28 17:22 | 51.83921 | -1.33478 | 897 ft | 136 kts | 187° |
| 2026-04-28 17:22 | 51.83021 | -1.33706 | 958 ft | 120 kts | 175° |
| 2026-04-28 17:22 | 51.82217 | -1.33578 | 853 ft | 99 kts | 112° |
| 2026-04-28 17:23 | 51.82517 | -1.32391 | 418 ft | 52 kts | 17° |
| 2026-04-28 17:23 | 51.82858 | -1.32261 | 327 ft | 50 kts | 13° |
| 2026-04-28 17:23 | 51.83214 | -1.32152 | 270 ft | 48 kts | 15° |
| 2026-04-28 17:23 | 51.83561 | -1.32030 | 320 ft | 58 kts | 11° |
| 2026-04-28 17:24 | 51.83992 | -1.31954 | 504 ft | 67 kts | 11° |
| 2026-04-28 17:24 | 51.84472 | -1.31908 | 798 ft | 65 kts | 6° |
| 2026-04-28 17:24 | 51.84880 | -1.32307 | 1042 ft | 100 kts | 307° |
| 2026-04-28 17:24 | 51.84862 | -1.33547 | 1276 ft | 118 kts | 263° |
| 2026-04-28 17:25 | 51.84402 | -1.34697 | 1547 ft | 128 kts | 217° |
| 2026-04-28 17:25 | 51.82734 | -1.35258 | 2069 ft | 122 kts | 171° |
| 2026-04-28 17:25 | 51.81882 | -1.35338 | 2325 ft | 123 kts | 173° |
| 2026-04-28 17:26 | 51.81021 | -1.35457 | 2583 ft | 124 kts | 175° |
| 2026-04-28 17:26 | 51.80150 | -1.35598 | 2852 ft | 128 kts | 176° |
| 2026-04-28 17:26 | 51.79243 | -1.35754 | 3127 ft | 133 kts | 178° |
| 2026-04-28 17:26 | 51.78315 | -1.35919 | 3394 ft | 136 kts | 177° |
| 2026-04-28 17:27 | 51.77368 | -1.35993 | 3658 ft | 136 kts | 162° |
| 2026-04-28 17:27 | 51.76507 | -1.35465 | 3921 ft | 132 kts | 137° |
| 2026-04-28 17:27 | 51.75719 | -1.34651 | 4207 ft | 136 kts | 134° |
| 2026-04-28 17:27 | 51.74926 | -1.33822 | 4516 ft | 136 kts | 134° |
| 2026-04-28 17:28 | 51.74138 | -1.32998 | 4826 ft | 133 kts | 136° |
| 2026-04-28 17:28 | 51.72654 | -1.31453 | 5442 ft | 122 kts | 136° |
| 2026-04-28 17:28 | 51.71942 | -1.30706 | 5745 ft | 122 kts | 137° |
| 2026-04-28 17:29 | 51.71232 | -1.29966 | 6051 ft | 120 kts | 138° |
| 2026-04-28 17:29 | 51.70540 | -1.29247 | 6350 ft | 117 kts | 136° |
| 2026-04-28 17:29 | 51.69864 | -1.28540 | 6650 ft | 115 kts | 135° |
| 2026-04-28 17:30 | 51.68588 | -1.27212 | 7207 ft | 103 kts | 134° |
| 2026-04-28 17:30 | 51.67439 | -1.26013 | 7795 ft | 95 kts | 134° |
| 2026-04-28 17:30 | 51.66895 | -1.25445 | 8094 ft | 92 kts | 134° |
| 2026-04-28 17:31 | 51.66375 | -1.24904 | 8393 ft | 89 kts | 134° |
| 2026-04-28 17:31 | 51.65357 | -1.23843 | 9010 ft | 85 kts | 134° |
| 2026-04-28 17:32 | 51.64365 | -1.22809 | 9579 ft | 89 kts | 134° |
| 2026-04-28 17:32 | 51.63840 | -1.22263 | 9845 ft | 91 kts | 135° |
| 2026-04-28 17:32 | 51.63302 | -1.21705 | 10111 ft | 93 kts | 135° |
| 2026-04-28 17:32 | 51.62752 | -1.21134 | 10362 ft | 95 kts | 135° |
| 2026-04-28 17:33 | 51.62196 | -1.20558 | 10600 ft | 95 kts | 135° |
| 2026-04-28 17:33 | 51.61641 | -1.19981 | 10839 ft | 97 kts | 135° |
| 2026-04-28 17:33 | 51.61069 | -1.19388 | 11086 ft | 98 kts | 135° |
| 2026-04-28 17:33 | 51.60678 | -1.18982 | 11252 ft | 100 kts | 135° |
| 2026-04-28 17:34 | 51.59815 | -1.18080 | 11278 ft | 121 kts | 137° |
| 2026-04-28 17:34 | 51.59072 | -1.17313 | 11265 ft | 131 kts | 138° |
| 2026-04-28 17:34 | 51.58288 | -1.16506 | 11273 ft | 136 kts | 138° |
| 2026-04-28 17:34 | 51.57478 | -1.15671 | 11272 ft | 140 kts | 139° |
| 2026-04-28 17:35 | 51.56656 | -1.14823 | 11284 ft | 141 kts | 139° |
| 2026-04-28 17:35 | 51.55822 | -1.13960 | 11269 ft | 143 kts | 139° |
| 2026-04-28 17:35 | 51.54984 | -1.13095 | 11267 ft | 143 kts | 139° |
| 2026-04-28 17:35 | 51.54149 | -1.12233 | 11268 ft | 143 kts | 139° |
| 2026-04-28 17:36 | 51.53312 | -1.11369 | 11269 ft | 143 kts | 139° |
| 2026-04-28 17:36 | 51.52471 | -1.10497 | 11269 ft | 145 kts | 139° |
| 2026-04-28 17:36 | 51.51617 | -1.09614 | 11270 ft | 147 kts | 139° |
| 2026-04-28 17:36 | 51.50753 | -1.08723 | 11270 ft | 148 kts | 139° |
| 2026-04-28 17:37 | 51.49883 | -1.07827 | 11270 ft | 149 kts | 139° |
| 2026-04-28 17:37 | 51.49010 | -1.06928 | 11270 ft | 149 kts | 139° |
| 2026-04-28 17:37 | 51.48134 | -1.06026 | 11269 ft | 150 kts | 139° |
| 2026-04-28 17:37 | 51.47258 | -1.05124 | 11270 ft | 150 kts | 139° |
| 2026-04-28 17:38 | 51.46376 | -1.04216 | 11268 ft | 150 kts | 139° |
| 2026-04-28 17:38 | 51.45497 | -1.03312 | 11269 ft | 150 kts | 139° |
| 2026-04-28 17:38 | 51.44614 | -1.02404 | 11267 ft | 151 kts | 139° |
| 2026-04-28 17:38 | 51.43718 | -1.01510 | 11258 ft | 155 kts | 146° |
| 2026-04-28 17:39 | 51.42613 | -1.01268 | 11265 ft | 166 kts | 172° |
| 2026-04-28 17:39 | 51.41450 | -1.01391 | 11264 ft | 168 kts | 175° |
| 2026-04-28 17:39 | 51.39115 | -1.01711 | 11264 ft | 169 kts | 175° |
| 2026-04-28 17:40 | 51.37944 | -1.01876 | 11263 ft | 169 kts | 175° |
| 2026-04-28 17:40 | 51.36774 | -1.02041 | 11257 ft | 169 kts | 175° |
| 2026-04-28 17:40 | 51.35678 | -1.01734 | 11250 ft | 154 kts | 143° |
| 2026-04-28 17:40 | 51.34867 | -1.00693 | 11257 ft | 148 kts | 130° |
| 2026-04-28 17:41 | 51.34118 | -0.99562 | 11257 ft | 148 kts | 130° |
| 2026-04-28 17:41 | 51.33340 | -0.98468 | 11261 ft | 149 kts | 133° |
| 2026-04-28 17:41 | 51.32537 | -0.97402 | 11249 ft | 151 kts | 133° |
| 2026-04-28 17:41 | 51.31721 | -0.96342 | 11244 ft | 151 kts | 133° |
| 2026-04-28 17:42 | 51.30905 | -0.95285 | 11244 ft | 151 kts | 133° |
| 2026-04-28 17:42 | 51.30365 | -0.94585 | 11244 ft | 151 kts | 134° |
| 2026-04-28 17:42 | 51.29270 | -0.93168 | 11244 ft | 152 kts | 134° |
| 2026-04-28 17:42 | 51.28450 | -0.92108 | 11244 ft | 152 kts | 134° |
| 2026-04-28 17:43 | 51.27630 | -0.91048 | 11244 ft | 151 kts | 134° |
| 2026-04-28 17:43 | 51.26812 | -0.89992 | 11240 ft | 151 kts | 133° |
| 2026-04-28 17:43 | 51.25995 | -0.88936 | 11244 ft | 151 kts | 134° |
| 2026-04-28 17:43 | 51.25177 | -0.87880 | 11240 ft | 152 kts | 134° |
| 2026-04-28 17:44 | 51.24356 | -0.86823 | 11237 ft | 151 kts | 133° |
| 2026-04-28 17:44 | 51.23816 | -0.86126 | 11243 ft | 151 kts | 133° |
| 2026-04-28 17:44 | 51.22736 | -0.84732 | 11239 ft | 151 kts | 133° |
| 2026-04-28 17:44 | 51.21920 | -0.83682 | 11234 ft | 150 kts | 133° |
| 2026-04-28 17:45 | 51.21105 | -0.82632 | 11238 ft | 151 kts | 134° |
| 2026-04-28 17:45 | 51.20286 | -0.81577 | 11238 ft | 152 kts | 134° |
| 2026-04-28 17:45 | 51.19732 | -0.80865 | 11232 ft | 151 kts | 133° |
| 2026-04-28 17:45 | 51.18649 | -0.79472 | 11238 ft | 151 kts | 134° |
| 2026-04-28 17:46 | 51.18095 | -0.78760 | 11238 ft | 151 kts | 134° |
| 2026-04-28 17:46 | 51.17275 | -0.77707 | 11239 ft | 152 kts | 134° |
| 2026-04-28 17:46 | 51.16453 | -0.76650 | 11238 ft | 152 kts | 134° |
| 2026-04-28 17:46 | 51.15629 | -0.75593 | 11234 ft | 152 kts | 134° |
| 2026-04-28 17:47 | 51.14802 | -0.74533 | 11239 ft | 152 kts | 133° |
| 2026-04-28 17:47 | 51.13978 | -0.73475 | 11239 ft | 152 kts | 133° |
| 2026-04-28 17:47 | 51.13162 | -0.72429 | 11240 ft | 153 kts | 133° |
| 2026-04-28 17:47 | 51.12603 | -0.71712 | 11240 ft | 153 kts | 134° |
| 2026-04-28 17:48 | 51.11490 | -0.70288 | 11240 ft | 153 kts | 133° |
| 2026-04-28 17:48 | 51.10671 | -0.69239 | 11240 ft | 153 kts | 133° |
| 2026-04-28 17:48 | 51.09831 | -0.68165 | 11240 ft | 153 kts | 134° |
| 2026-04-28 17:48 | 51.09013 | -0.67119 | 11239 ft | 153 kts | 133° |
| 2026-04-28 17:49 | 51.08186 | -0.66062 | 11239 ft | 153 kts | 134° |
| 2026-04-28 17:49 | 51.07357 | -0.65003 | 11239 ft | 152 kts | 133° |
| 2026-04-28 17:49 | 51.06533 | -0.63951 | 11240 ft | 152 kts | 133° |
| 2026-04-28 17:49 | 51.05713 | -0.62891 | 11234 ft | 151 kts | 131° |
| 2026-04-28 17:50 | 51.05057 | -0.61622 | 11230 ft | 147 kts | 116° |
| 2026-04-28 17:50 | 51.04520 | -0.60241 | 11229 ft | 147 kts | 116° |
| 2026-04-28 17:50 | 51.03986 | -0.58862 | 11234 ft | 146 kts | 116° |
| 2026-04-28 17:50 | 51.03452 | -0.57482 | 11224 ft | 146 kts | 116° |
| 2026-04-28 17:51 | 51.02919 | -0.56108 | 11226 ft | 146 kts | 116° |
| 2026-04-28 17:51 | 51.02387 | -0.54736 | 11225 ft | 146 kts | 116° |
| 2026-04-28 17:51 | 51.01856 | -0.53367 | 11223 ft | 146 kts | 117° |
| 2026-04-28 17:51 | 51.01323 | -0.51998 | 11221 ft | 146 kts | 116° |
| 2026-04-28 17:52 | 51.00791 | -0.50628 | 11217 ft | 146 kts | 117° |
| 2026-04-28 17:52 | 51.00256 | -0.49256 | 11214 ft | 146 kts | 117° |
| 2026-04-28 17:52 | 50.99194 | -0.46531 | 11214 ft | 141 kts | 117° |
| 2026-04-28 17:53 | 50.98682 | -0.45219 | 11209 ft | 138 kts | 116° |
| 2026-04-28 17:53 | 50.98182 | -0.43935 | 11213 ft | 136 kts | 116° |
| 2026-04-28 17:53 | 50.97686 | -0.42661 | 11217 ft | 135 kts | 116° |
| 2026-04-28 17:53 | 50.97193 | -0.41396 | 11214 ft | 135 kts | 116° |
| 2026-04-28 17:54 | 50.96701 | -0.40135 | 11213 ft | 134 kts | 116° |
| 2026-04-28 17:54 | 50.96210 | -0.38876 | 11209 ft | 134 kts | 116° |
| 2026-04-28 17:54 | 50.95717 | -0.37613 | 11201 ft | 135 kts | 116° |
| 2026-04-28 17:54 | 50.95268 | -0.36332 | 11212 ft | 131 kts | 102° |
| 2026-04-28 17:55 | 50.95288 | -0.34913 | 11220 ft | 130 kts | 84° |
| 2026-04-28 17:55 | 50.95390 | -0.33493 | 11220 ft | 130 kts | 85° |
| 2026-04-28 17:55 | 50.95470 | -0.32070 | 11220 ft | 130 kts | 86° |
| 2026-04-28 17:55 | 50.95537 | -0.30646 | 11219 ft | 130 kts | 86° |
| 2026-04-28 17:56 | 50.95601 | -0.29220 | 11219 ft | 130 kts | 86° |
| 2026-04-28 17:56 | 50.95662 | -0.27794 | 11220 ft | 130 kts | 86° |
| 2026-04-28 17:56 | 50.95722 | -0.26366 | 11216 ft | 130 kts | 86° |
| 2026-04-28 17:56 | 50.95782 | -0.24936 | 11222 ft | 130 kts | 86° |
| 2026-04-28 17:57 | 50.95842 | -0.23501 | 11223 ft | 131 kts | 86° |
| 2026-04-28 17:57 | 50.95902 | -0.22077 | 11223 ft | 131 kts | 86° |
| 2026-04-28 17:57 | 50.95962 | -0.20627 | 11215 ft | 132 kts | 86° |
| 2026-04-28 17:57 | 50.96022 | -0.19181 | 11218 ft | 132 kts | 86° |
| 2026-04-28 17:58 | 50.96082 | -0.17731 | 11211 ft | 132 kts | 86° |
| 2026-04-28 17:58 | 50.96108 | -0.16279 | 11205 ft | 133 kts | 98° |
| 2026-04-28 17:58 | 50.95895 | -0.14855 | 11216 ft | 133 kts | 102° |
| 2026-04-28 17:58 | 50.95675 | -0.13435 | 11213 ft | 133 kts | 101° |
| 2026-04-28 17:59 | 50.95463 | -0.12016 | 11215 ft | 132 kts | 101° |
| 2026-04-28 17:59 | 50.95258 | -0.10608 | 11213 ft | 131 kts | 100° |
| 2026-04-28 17:59 | 50.95055 | -0.09203 | 11216 ft | 130 kts | 100° |
| 2026-04-28 17:59 | 50.94854 | -0.07806 | 11213 ft | 130 kts | 101° |
| 2026-04-28 18:00 | 50.94652 | -0.06406 | 11211 ft | 130 kts | 100° |
| 2026-04-28 18:00 | 50.94450 | -0.05007 | 11214 ft | 130 kts | 101° |
| 2026-04-28 18:00 | 50.94247 | -0.03605 | 11214 ft | 131 kts | 101° |
| 2026-04-28 18:00 | 50.94044 | -0.02203 | 11215 ft | 130 kts | 101° |
| 2026-04-28 18:01 | 50.93840 | -0.00799 | 11220 ft | 131 kts | 101° |
| 2026-04-28 18:01 | 50.93638 | 0.00596 | 11227 ft | 129 kts | 101° |
| 2026-04-28 18:01 | 50.93437 | 0.01978 | 11229 ft | 128 kts | 101° |
| 2026-04-28 18:01 | 50.93237 | 0.03354 | 11234 ft | 128 kts | 101° |
| 2026-04-28 18:02 | 50.93037 | 0.04734 | 11240 ft | 129 kts | 101° |
| 2026-04-28 18:02 | 50.92830 | 0.06147 | 10999 ft | 132 kts | 101° |
| 2026-04-28 18:02 | 50.92625 | 0.07555 | 10754 ft | 130 kts | 101° |
| 2026-04-28 18:02 | 50.92422 | 0.08945 | 10512 ft | 129 kts | 101° |
| 2026-04-28 18:03 | 50.92222 | 0.10323 | 10272 ft | 128 kts | 101° |
| 2026-04-28 18:03 | 50.92022 | 0.11694 | 10020 ft | 127 kts | 100° |
| 2026-04-28 18:03 | 50.91823 | 0.13058 | 9770 ft | 126 kts | 100° |
| 2026-04-28 18:03 | 50.91625 | 0.14415 | 9532 ft | 126 kts | 100° |
| 2026-04-28 18:04 | 50.91427 | 0.15764 | 9298 ft | 125 kts | 99° |
| 2026-04-28 18:04 | 50.91230 | 0.17108 | 9063 ft | 125 kts | 99° |
| 2026-04-28 18:04 | 50.91034 | 0.18448 | 8831 ft | 127 kts | 99° |
| 2026-04-28 18:04 | 50.90830 | 0.19849 | 8602 ft | 134 kts | 99° |
| 2026-04-28 18:05 | 50.90616 | 0.21304 | 8370 ft | 137 kts | 99° |
| 2026-04-28 18:05 | 50.90471 | 0.22283 | 8231 ft | 138 kts | 99° |
| 2026-04-28 18:05 | 50.90182 | 0.24242 | 8026 ft | 134 kts | 99° |
| 2026-04-28 18:05 | 50.89971 | 0.25667 | 7902 ft | 132 kts | 99° |
| 2026-04-28 18:06 | 50.89764 | 0.27074 | 7770 ft | 130 kts | 98° |
| 2026-04-28 18:06 | 50.89560 | 0.28459 | 7647 ft | 128 kts | 98° |
| 2026-04-28 18:06 | 50.89357 | 0.29832 | 7520 ft | 128 kts | 98° |
| 2026-04-28 18:06 | 50.89155 | 0.31199 | 7395 ft | 127 kts | 99° |
| 2026-04-28 18:07 | 50.88952 | 0.32566 | 7274 ft | 128 kts | 98° |
| 2026-04-28 18:07 | 50.88749 | 0.33939 | 7150 ft | 128 kts | 98° |
| 2026-04-28 18:07 | 50.88545 | 0.35312 | 7027 ft | 128 kts | 98° |
| 2026-04-28 18:07 | 50.88342 | 0.36687 | 6896 ft | 129 kts | 98° |
| 2026-04-28 18:08 | 50.88136 | 0.38072 | 6758 ft | 129 kts | 98° |
| 2026-04-28 18:08 | 50.87931 | 0.39448 | 6629 ft | 128 kts | 98° |
| 2026-04-28 18:08 | 50.87727 | 0.40821 | 6497 ft | 128 kts | 98° |
| 2026-04-28 18:08 | 50.87523 | 0.42188 | 6371 ft | 128 kts | 98° |
| 2026-04-28 18:09 | 50.87320 | 0.43551 | 6237 ft | 127 kts | 98° |
| 2026-04-28 18:09 | 50.87117 | 0.44906 | 6108 ft | 126 kts | 98° |
| 2026-04-28 18:09 | 50.86916 | 0.46251 | 5994 ft | 124 kts | 98° |
| 2026-04-28 18:09 | 50.86720 | 0.47568 | 5914 ft | 123 kts | 98° |
| 2026-04-28 18:10 | 50.86525 | 0.48877 | 5840 ft | 124 kts | 98° |
| 2026-04-28 18:10 | 50.86324 | 0.50220 | 5746 ft | 127 kts | 98° |
| 2026-04-28 18:10 | 50.86120 | 0.51584 | 5683 ft | 127 kts | 98° |
| 2026-04-28 18:10 | 50.85916 | 0.52928 | 5533 ft | 125 kts | 98° |
| 2026-04-28 18:11 | 50.85715 | 0.54255 | 5365 ft | 123 kts | 97° |
| 2026-04-28 18:11 | 50.85523 | 0.55534 | 5201 ft | 117 kts | 97° |
| 2026-04-28 18:11 | 50.85337 | 0.56772 | 5045 ft | 115 kts | 97° |
| 2026-04-28 18:11 | 50.85156 | 0.57980 | 4894 ft | 112 kts | 98° |
| 2026-04-28 18:12 | 50.84977 | 0.59177 | 4748 ft | 112 kts | 97° |
| 2026-04-28 18:12 | 50.84798 | 0.60374 | 4597 ft | 112 kts | 97° |
| 2026-04-28 18:12 | 50.84620 | 0.61539 | 4440 ft | 103 kts | 97° |
| 2026-04-28 18:12 | 50.84459 | 0.62606 | 4312 ft | 97 kts | 96° |
| 2026-04-28 18:13 | 50.84304 | 0.63632 | 4185 ft | 94 kts | 95° |
| 2026-04-28 18:13 | 50.84155 | 0.64617 | 4065 ft | 91 kts | 96° |
| 2026-04-28 18:13 | 50.84010 | 0.65586 | 3946 ft | 91 kts | 95° |
| 2026-04-28 18:13 | 50.83864 | 0.66551 | 3824 ft | 90 kts | 95° |
| 2026-04-28 18:14 | 50.83720 | 0.67505 | 3710 ft | 88 kts | 95° |
| 2026-04-28 18:14 | 50.83579 | 0.68438 | 3594 ft | 86 kts | 94° |
| 2026-04-28 18:14 | 50.83439 | 0.69358 | 3477 ft | 85 kts | 95° |
| 2026-04-28 18:14 | 50.83301 | 0.70280 | 3364 ft | 89 kts | 95° |
| 2026-04-28 18:15 | 50.83154 | 0.71255 | 3241 ft | 93 kts | 95° |
| 2026-04-28 18:15 | 50.83000 | 0.72272 | 3114 ft | 96 kts | 95° |
| 2026-04-28 18:15 | 50.82847 | 0.73256 | 2989 ft | 89 kts | 95° |
| 2026-04-28 18:15 | 50.82708 | 0.74156 | 2881 ft | 82 kts | 94° |
| 2026-04-28 18:16 | 50.82578 | 0.75013 | 2771 ft | 78 kts | 93° |
| 2026-04-28 18:16 | 50.82453 | 0.75838 | 2668 ft | 77 kts | 93° |
| 2026-04-28 18:16 | 50.82363 | 0.76671 | 2574 ft | 78 kts | 83° |
| 2026-04-28 18:16 | 50.82448 | 0.77511 | 2496 ft | 76 kts | 68° |
| 2026-04-28 18:17 | 50.82695 | 0.78218 | 2494 ft | 72 kts | 53° |
| 2026-04-28 18:17 | 50.83060 | 0.78747 | 2490 ft | 71 kts | 44° |
| 2026-04-28 18:17 | 50.83454 | 0.79227 | 2489 ft | 72 kts | 44° |
| 2026-04-28 18:17 | 50.83853 | 0.79712 | 2481 ft | 73 kts | 44° |
| 2026-04-28 18:18 | 50.84249 | 0.80193 | 2492 ft | 71 kts | 45° |
| 2026-04-28 18:18 | 50.84639 | 0.80667 | 2494 ft | 70 kts | 45° |
| 2026-04-28 18:18 | 50.85022 | 0.81133 | 2492 ft | 69 kts | 45° |
| 2026-04-28 18:18 | 50.85273 | 0.81440 | 2475 ft | 69 kts | 45° |
| 2026-04-28 18:19 | 50.85779 | 0.82058 | 2373 ft | 68 kts | 44° |
| 2026-04-28 18:19 | 50.86156 | 0.82518 | 2282 ft | 69 kts | 44° |
| 2026-04-28 18:19 | 50.86538 | 0.82984 | 2186 ft | 70 kts | 43° |
| 2026-04-28 18:19 | 50.86925 | 0.83455 | 2091 ft | 71 kts | 41° |
| 2026-04-28 18:20 | 50.87315 | 0.83930 | 1990 ft | 70 kts | 40° |
| 2026-04-28 18:20 | 50.87703 | 0.84402 | 1876 ft | 70 kts | 39° |
| 2026-04-28 18:20 | 50.88090 | 0.84874 | 1772 ft | 70 kts | 39° |
| 2026-04-28 18:20 | 50.88478 | 0.85346 | 1674 ft | 70 kts | 39° |
| 2026-04-28 18:21 | 50.88845 | 0.85795 | 1559 ft | 60 kts | 39° |
| 2026-04-28 18:21 | 50.89168 | 0.86183 | 1470 ft | 64 kts | 40° |
| 2026-04-28 18:21 | 50.89538 | 0.86596 | 1463 ft | 58 kts | 38° |
| 2026-04-28 18:21 | 50.89879 | 0.87022 | 1299 ft | 60 kts | 44° |
| 2026-04-28 18:22 | 50.90197 | 0.87430 | 1131 ft | 59 kts | 39° |
| 2026-04-28 18:22 | 50.90524 | 0.87751 | 946 ft | 51 kts | 34° |
| 2026-04-28 18:22 | 50.90787 | 0.88121 | 820 ft | 54 kts | 41° |
| 2026-04-28 18:22 | 50.91050 | 0.88545 | 695 ft | 55 kts | 44° |
| 2026-04-28 18:23 | 50.91302 | 0.88923 | 626 ft | 45 kts | 45° |
| 2026-04-28 18:23 | 50.91552 | 0.89252 | 576 ft | 44 kts | 42° |
| 2026-04-28 18:23 | 50.91829 | 0.89583 | 469 ft | 52 kts | 40° |
| 2026-04-28 18:23 | 50.92095 | 0.89904 | 452 ft | 48 kts | 40° |
| 2026-04-28 18:24 | 50.92397 | 0.90250 | 482 ft | 57 kts | 39° |
| 2026-04-28 18:24 | 50.92621 | 0.90508 | 508 ft | 59 kts | 41° |
| 2026-04-28 18:24 | 50.93057 | 0.91075 | 600 ft | 68 kts | 40° |
| 2026-04-28 18:24 | 50.93432 | 0.91573 | 573 ft | 73 kts | 39° |
| 2026-04-28 18:25 | 50.93813 | 0.92014 | 363 ft | 63 kts | 36° |
| 2026-04-28 18:25 | 50.94135 | 0.92370 | 268 ft | 53 kts | 36° |
| 2026-04-28 18:25 | 50.94436 | 0.92695 | 214 ft | 51 kts | 33° |
| 2026-04-28 18:26 | 50.95077 | 0.93351 | 31 ft | 56 kts | 35° |
| 2026-04-28 18:26 | 50.95308 | 0.93593 | 14 ft | 24 kts | 34° |
| 2026-04-28 18:26 | 50.95407 | 0.93691 | 13 ft | 11 kts | 31° |
| 2026-04-28 18:26 | 50.95468 | 0.93735 | 20 ft | 7 kts | 338° |
| 2026-04-28 18:27 | 50.95486 | 0.93631 | 13 ft | 8 kts | 265° |
| 2026-04-28 18:27 | 50.95510 | 0.93554 | 13 ft | 6 kts | 279° |
| 2026-04-28 18:27 | 50.95526 | 0.93489 | 13 ft | 7 kts | 235° |
| 2026-04-28 18:27 | 50.95476 | 0.93449 | 14 ft | 1 kts | 95° |
| 2026-04-28 18:28 | 50.95469 | 0.93474 | 14 ft | 0 kts | 109° |